Manahawkin, New Jersey
Current Conditions -  °F | °C
As of 7:55 AM on Friday 24 Oct 2014 (Local Time) from KMJX Reporting Station
Scattered Clouds Scattered Clouds  
Wind Chill: 52°   Ceiling: Unl
Heat Index: 52°   Visibility: 10mi
Dew Point: 45°   Wind: 5mph
Humidity: 76%   Direction: 320°NW
Pressure: 29.83"   Gusts: NA
Location:  39.7°N, 74.25°W
Report Text: KMJX 241155Z AUTO 32004KT 10SM SCT030 11/07 A2983 RMK AO1 10110 20090 52003
Loading
Personal Weather Stations






























Interactive Weather Map New forecast layout! Learn more

10-Day Weather Forecast

Advertisements
Track Severe Weather on mobile